sensor_id;sensor_type;location;lat;lon;timestamp;P1;durP1;ratioP1;P2;durP2;ratioP2
42760;SDS011;31672;47.638;19.026;2023-04-09T00:01:43;24.43;;;12.70;;
42760;SDS011;31672;47.638;19.026;2023-04-09T00:06:47;48.63;;;22.10;;
42760;SDS011;31672;47.638;19.026;2023-04-09T00:11:50;29.93;;;17.20;;
42760;SDS011;31672;47.638;19.026;2023-04-09T00:16:53;20.97;;;12.07;;
42760;SDS011;31672;47.638;19.026;2023-04-09T00:21:56;19.37;;;12.07;;
42760;SDS011;31672;47.638;19.026;2023-04-09T00:26:59;21.40;;;12.07;;
42760;SDS011;31672;47.638;19.026;2023-04-09T00:32:02;19.33;;;11.80;;
42760;SDS011;31672;47.638;19.026;2023-04-09T00:37:05;25.97;;;15.23;;
42760;SDS011;31672;47.638;19.026;2023-04-09T00:42:09;20.40;;;11.87;;
42760;SDS011;31672;47.638;19.026;2023-04-09T00:47:12;22.60;;;13.87;;
42760;SDS011;31672;47.638;19.026;2023-04-09T00:52:15;22.17;;;13.40;;
42760;SDS011;31672;47.638;19.026;2023-04-09T00:57:18;23.13;;;14.93;;
42760;SDS011;31672;47.638;19.026;2023-04-09T01:02:21;24.37;;;15.77;;
42760;SDS011;31672;47.638;19.026;2023-04-09T01:07:32;25.07;;;15.77;;
42760;SDS011;31672;47.638;19.026;2023-04-09T01:18:18;27.73;;;17.20;;
42760;SDS011;31672;47.638;19.026;2023-04-09T01:29:24;33.70;;;19.00;;
42760;SDS011;31672;47.638;19.026;2023-04-09T01:34:31;34.00;;;20.30;;
42760;SDS011;31672;47.638;19.026;2023-04-09T01:39:36;17.60;;;10.00;;
42760;SDS011;31672;47.638;19.026;2023-04-09T01:44:40;16.27;;;10.53;;
42760;SDS011;31672;47.638;19.026;2023-04-09T01:49:45;15.63;;;9.27;;
42760;SDS011;31672;47.638;19.026;2023-04-09T01:54:49;17.40;;;9.30;;
42760;SDS011;31672;47.638;19.026;2023-04-09T01:59:52;15.97;;;9.27;;
42760;SDS011;31672;47.638;19.026;2023-04-09T02:04:56;16.63;;;11.10;;
42760;SDS011;31672;47.638;19.026;2023-04-09T02:10:04;14.23;;;8.97;;
42760;SDS011;31672;47.638;19.026;2023-04-09T02:15:09;17.80;;;11.93;;
42760;SDS011;31672;47.638;19.026;2023-04-09T02:20:17;29.33;;;13.43;;
42760;SDS011;31672;47.638;19.026;2023-04-09T02:25:21;17.17;;;10.07;;
42760;SDS011;31672;47.638;19.026;2023-04-09T02:30:24;20.27;;;12.00;;
42760;SDS011;31672;47.638;19.026;2023-04-09T02:35:27;17.23;;;10.17;;
42760;SDS011;31672;47.638;19.026;2023-04-09T02:40:30;14.33;;;9.50;;
42760;SDS011;31672;47.638;19.026;2023-04-09T02:45:33;19.03;;;9.30;;
42760;SDS011;31672;47.638;19.026;2023-04-09T02:50:37;14.97;;;9.97;;
42760;SDS011;31672;47.638;19.026;2023-04-09T02:55:40;16.67;;;9.93;;
42760;SDS011;31672;47.638;19.026;2023-04-09T03:00:43;15.80;;;9.63;;
42760;SDS011;31672;47.638;19.026;2023-04-09T03:05:45;15.93;;;10.33;;
42760;SDS011;31672;47.638;19.026;2023-04-09T03:10:49;17.57;;;11.10;;
42760;SDS011;31672;47.638;19.026;2023-04-09T03:15:51;20.93;;;12.33;;
42760;SDS011;31672;47.638;19.026;2023-04-09T03:20:54;17.27;;;10.97;;
42760;SDS011;31672;47.638;19.026;2023-04-09T03:26:04;21.37;;;13.27;;
42760;SDS011;31672;47.638;19.026;2023-04-09T03:31:07;18.83;;;11.67;;
42760;SDS011;31672;47.638;19.026;2023-04-09T03:36:11;20.97;;;13.17;;
42760;SDS011;31672;47.638;19.026;2023-04-09T03:41:14;25.30;;;15.63;;
42760;SDS011;31672;47.638;19.026;2023-04-09T03:46:18;19.03;;;11.43;;
42760;SDS011;31672;47.638;19.026;2023-04-09T03:51:21;16.03;;;10.43;;
42760;SDS011;31672;47.638;19.026;2023-04-09T03:56:23;20.97;;;11.10;;
42760;SDS011;31672;47.638;19.026;2023-04-09T04:01:26;14.30;;;9.10;;
42760;SDS011;31672;47.638;19.026;2023-04-09T04:06:31;15.97;;;9.20;;
42760;SDS011;31672;47.638;19.026;2023-04-09T04:11:36;17.00;;;10.83;;
42760;SDS011;31672;47.638;19.026;2023-04-09T04:16:39;16.47;;;10.67;;
42760;SDS011;31672;47.638;19.026;2023-04-09T04:21:43;13.80;;;8.60;;
42760;SDS011;31672;47.638;19.026;2023-04-09T04:26:46;17.33;;;9.63;;
42760;SDS011;31672;47.638;19.026;2023-04-09T04:31:49;15.93;;;9.70;;
42760;SDS011;31672;47.638;19.026;2023-04-09T04:36:53;24.47;;;16.43;;
42760;SDS011;31672;47.638;19.026;2023-04-09T04:41:56;20.23;;;11.90;;
42760;SDS011;31672;47.638;19.026;2023-04-09T04:46:59;16.83;;;10.93;;
42760;SDS011;31672;47.638;19.026;2023-04-09T04:52:02;19.43;;;12.20;;
42760;SDS011;31672;47.638;19.026;2023-04-09T04:57:05;16.77;;;10.17;;
42760;SDS011;31672;47.638;19.026;2023-04-09T05:02:08;23.23;;;14.67;;
42760;SDS011;31672;47.638;19.026;2023-04-09T05:07:12;16.37;;;10.40;;
42760;SDS011;31672;47.638;19.026;2023-04-09T05:12:15;16.77;;;10.57;;
42760;SDS011;31672;47.638;19.026;2023-04-09T05:17:19;16.33;;;10.77;;
42760;SDS011;31672;47.638;19.026;2023-04-09T05:22:22;16.07;;;10.00;;
42760;SDS011;31672;47.638;19.026;2023-04-09T05:27:25;18.03;;;10.67;;
42760;SDS011;31672;47.638;19.026;2023-04-09T05:32:29;22.00;;;13.57;;
42760;SDS011;31672;47.638;19.026;2023-04-09T05:37:32;17.83;;;11.43;;
42760;SDS011;31672;47.638;19.026;2023-04-09T05:42:35;16.40;;;11.43;;
42760;SDS011;31672;47.638;19.026;2023-04-09T05:47:39;14.47;;;10.00;;
42760;SDS011;31672;47.638;19.026;2023-04-09T05:52:42;14.07;;;9.20;;
42760;SDS011;31672;47.638;19.026;2023-04-09T05:57:45;10.13;;;7.37;;
42760;SDS011;31672;47.638;19.026;2023-04-09T06:02:49;21.77;;;13.10;;
42760;SDS011;31672;47.638;19.026;2023-04-09T06:07:52;15.03;;;10.67;;
42760;SDS011;31672;47.638;19.026;2023-04-09T06:12:55;13.27;;;8.57;;
42760;SDS011;31672;47.638;19.026;2023-04-09T06:17:58;12.40;;;7.80;;
42760;SDS011;31672;47.638;19.026;2023-04-09T06:23:02;14.83;;;10.10;;
42760;SDS011;31672;47.638;19.026;2023-04-09T06:28:05;13.90;;;9.07;;
42760;SDS011;31672;47.638;19.026;2023-04-09T06:33:08;13.77;;;9.47;;
42760;SDS011;31672;47.638;19.026;2023-04-09T06:38:11;17.30;;;11.03;;
42760;SDS011;31672;47.638;19.026;2023-04-09T06:43:14;13.87;;;8.93;;
42760;SDS011;31672;47.638;19.026;2023-04-09T06:48:17;15.90;;;9.87;;
42760;SDS011;31672;47.638;19.026;2023-04-09T06:53:19;12.60;;;8.40;;
42760;SDS011;31672;47.638;19.026;2023-04-09T06:58:22;13.57;;;9.27;;
42760;SDS011;31672;47.638;19.026;2023-04-09T07:03:26;24.63;;;16.43;;
42760;SDS011;31672;47.638;19.026;2023-04-09T07:08:30;18.17;;;11.23;;
42760;SDS011;31672;47.638;19.026;2023-04-09T07:13:33;12.17;;;8.13;;
42760;SDS011;31672;47.638;19.026;2023-04-09T07:18:37;23.13;;;13.80;;
42760;SDS011;31672;47.638;19.026;2023-04-09T07:23:41;14.17;;;9.73;;
42760;SDS011;31672;47.638;19.026;2023-04-09T07:28:44;11.83;;;8.50;;
42760;SDS011;31672;47.638;19.026;2023-04-09T07:33:47;14.23;;;10.40;;
42760;SDS011;31672;47.638;19.026;2023-04-09T07:38:50;9.67;;;6.60;;
42760;SDS011;31672;47.638;19.026;2023-04-09T07:43:54;10.17;;;7.17;;
42760;SDS011;31672;47.638;19.026;2023-04-09T07:48:58;11.90;;;8.10;;
42760;SDS011;31672;47.638;19.026;2023-04-09T07:54:01;12.80;;;8.80;;
42760;SDS011;31672;47.638;19.026;2023-04-09T07:59:04;12.67;;;8.73;;
42760;SDS011;31672;47.638;19.026;2023-04-09T08:04:08;12.17;;;8.67;;
42760;SDS011;31672;47.638;19.026;2023-04-09T08:09:15;11.43;;;7.57;;
42760;SDS011;31672;47.638;19.026;2023-04-09T08:14:19;10.90;;;7.37;;
42760;SDS011;31672;47.638;19.026;2023-04-09T08:19:23;11.43;;;8.03;;
42760;SDS011;31672;47.638;19.026;2023-04-09T08:24:26;9.87;;;7.03;;
42760;SDS011;31672;47.638;19.026;2023-04-09T08:29:29;9.57;;;6.97;;
42760;SDS011;31672;47.638;19.026;2023-04-09T08:34:33;9.63;;;6.90;;
42760;SDS011;31672;47.638;19.026;2023-04-09T08:39:36;11.80;;;7.47;;
42760;SDS011;31672;47.638;19.026;2023-04-09T08:44:39;12.30;;;8.00;;
42760;SDS011;31672;47.638;19.026;2023-04-09T08:49:42;11.10;;;7.63;;
42760;SDS011;31672;47.638;19.026;2023-04-09T08:54:45;12.37;;;8.37;;
42760;SDS011;31672;47.638;19.026;2023-04-09T08:59:48;10.73;;;7.90;;
42760;SDS011;31672;47.638;19.026;2023-04-09T09:04:51;11.90;;;7.50;;
42760;SDS011;31672;47.638;19.026;2023-04-09T09:09:59;10.93;;;7.40;;
42760;SDS011;31672;47.638;19.026;2023-04-09T09:15:25;10.10;;;7.30;;
42760;SDS011;31672;47.638;19.026;2023-04-09T09:20:30;11.43;;;7.37;;
42760;SDS011;31672;47.638;19.026;2023-04-09T09:25:36;11.47;;;7.73;;
42760;SDS011;31672;47.638;19.026;2023-04-09T09:30:41;10.70;;;7.80;;
42760;SDS011;31672;47.638;19.026;2023-04-09T09:35:45;9.73;;;6.97;;
42760;SDS011;31672;47.638;19.026;2023-04-09T09:40:51;11.03;;;6.93;;
42760;SDS011;31672;47.638;19.026;2023-04-09T09:45:54;8.20;;;6.40;;
42760;SDS011;31672;47.638;19.026;2023-04-09T09:50:58;9.50;;;6.43;;
42760;SDS011;31672;47.638;19.026;2023-04-09T09:56:05;10.70;;;7.73;;
42760;SDS011;31672;47.638;19.026;2023-04-09T10:01:12;8.70;;;6.77;;
42760;SDS011;31672;47.638;19.026;2023-04-09T10:06:18;8.73;;;6.37;;
42760;SDS011;31672;47.638;19.026;2023-04-09T10:11:21;9.23;;;6.83;;
42760;SDS011;31672;47.638;19.026;2023-04-09T10:16:25;9.30;;;7.20;;
42760;SDS011;31672;47.638;19.026;2023-04-09T10:21:41;9.03;;;6.73;;
42760;SDS011;31672;47.638;19.026;2023-04-09T10:26:56;9.70;;;6.80;;
42760;SDS011;31672;47.638;19.026;2023-04-09T10:32:18;9.83;;;6.33;;
42760;SDS011;31672;47.638;19.026;2023-04-09T10:37:29;8.67;;;6.40;;
42760;SDS011;31672;47.638;19.026;2023-04-09T10:42:34;9.17;;;6.33;;
42760;SDS011;31672;47.638;19.026;2023-04-09T10:47:41;8.97;;;6.77;;
42760;SDS011;31672;47.638;19.026;2023-04-09T10:52:50;7.37;;;5.50;;
42760;SDS011;31672;47.638;19.026;2023-04-09T10:57:57;8.67;;;6.10;;
42760;SDS011;31672;47.638;19.026;2023-04-09T11:08:29;8.10;;;5.07;;
42760;SDS011;31672;47.638;19.026;2023-04-09T11:13:34;9.23;;;7.03;;
42760;SDS011;31672;47.638;19.026;2023-04-09T11:18:37;10.00;;;7.40;;
42760;SDS011;31672;47.638;19.026;2023-04-09T11:23:41;8.43;;;6.13;;
42760;SDS011;31672;47.638;19.026;2023-04-09T11:28:44;8.97;;;6.73;;
42760;SDS011;31672;47.638;19.026;2023-04-09T11:33:47;7.87;;;5.80;;
42760;SDS011;31672;47.638;19.026;2023-04-09T11:38:53;8.83;;;6.10;;
42760;SDS011;31672;47.638;19.026;2023-04-09T11:43:57;8.77;;;6.60;;
42760;SDS011;31672;47.638;19.026;2023-04-09T11:49:00;8.83;;;6.97;;
42760;SDS011;31672;47.638;19.026;2023-04-09T11:54:06;8.27;;;6.33;;
42760;SDS011;31672;47.638;19.026;2023-04-09T11:59:09;9.67;;;6.80;;
42760;SDS011;31672;47.638;19.026;2023-04-09T12:04:19;9.33;;;6.30;;
42760;SDS011;31672;47.638;19.026;2023-04-09T12:09:23;8.83;;;6.90;;
42760;SDS011;31672;47.638;19.026;2023-04-09T12:14:26;11.20;;;7.60;;
42760;SDS011;31672;47.638;19.026;2023-04-09T12:19:29;6.63;;;5.00;;
42760;SDS011;31672;47.638;19.026;2023-04-09T12:24:32;6.97;;;5.03;;
42760;SDS011;31672;47.638;19.026;2023-04-09T12:29:35;7.87;;;6.20;;
42760;SDS011;31672;47.638;19.026;2023-04-09T12:34:38;8.30;;;6.30;;
42760;SDS011;31672;47.638;19.026;2023-04-09T12:39:42;7.57;;;5.47;;
42760;SDS011;31672;47.638;19.026;2023-04-09T12:44:45;8.25;;;6.30;;
42760;SDS011;31672;47.638;19.026;2023-04-09T12:49:48;8.00;;;6.22;;
42760;SDS011;31672;47.638;19.026;2023-04-09T12:54:51;7.38;;;5.57;;
42760;SDS011;31672;47.638;19.026;2023-04-09T12:59:54;6.78;;;5.75;;
42760;SDS011;31672;47.638;19.026;2023-04-09T13:04:58;7.68;;;5.72;;
42760;SDS011;31672;47.638;19.026;2023-04-09T13:10:01;8.57;;;6.78;;
42760;SDS011;31672;47.638;19.026;2023-04-09T13:15:04;6.20;;;5.00;;
42760;SDS011;31672;47.638;19.026;2023-04-09T13:20:08;5.93;;;5.10;;
42760;SDS011;31672;47.638;19.026;2023-04-09T13:25:11;6.25;;;4.90;;
42760;SDS011;31672;47.638;19.026;2023-04-09T13:30:16;8.40;;;7.38;;
42760;SDS011;31672;47.638;19.026;2023-04-09T13:35:19;6.07;;;4.97;;
42760;SDS011;31672;47.638;19.026;2023-04-09T13:40:22;6.35;;;5.25;;
42760;SDS011;31672;47.638;19.026;2023-04-09T13:45:25;7.75;;;5.80;;
42760;SDS011;31672;47.638;19.026;2023-04-09T13:50:28;6.60;;;5.05;;
42760;SDS011;31672;47.638;19.026;2023-04-09T13:55:32;6.57;;;5.43;;
42760;SDS011;31672;47.638;19.026;2023-04-09T14:00:35;5.90;;;5.10;;
42760;SDS011;31672;47.638;19.026;2023-04-09T14:05:39;9.38;;;7.07;;
42760;SDS011;31672;47.638;19.026;2023-04-09T14:10:42;6.53;;;5.03;;
42760;SDS011;31672;47.638;19.026;2023-04-09T14:15:45;6.20;;;4.90;;
42760;SDS011;31672;47.638;19.026;2023-04-09T14:20:48;7.95;;;5.20;;
42760;SDS011;31672;47.638;19.026;2023-04-09T14:25:51;5.57;;;4.57;;
42760;SDS011;31672;47.638;19.026;2023-04-09T14:30:54;9.95;;;6.93;;
42760;SDS011;31672;47.638;19.026;2023-04-09T14:35:57;9.27;;;5.80;;
42760;SDS011;31672;47.638;19.026;2023-04-09T14:41:00;10.85;;;9.57;;
42760;SDS011;31672;47.638;19.026;2023-04-09T14:46:04;7.20;;;5.30;;
42760;SDS011;31672;47.638;19.026;2023-04-09T14:51:08;9.80;;;6.38;;
42760;SDS011;31672;47.638;19.026;2023-04-09T14:56:12;8.10;;;5.82;;
42760;SDS011;31672;47.638;19.026;2023-04-09T15:01:15;9.43;;;5.97;;
42760;SDS011;31672;47.638;19.026;2023-04-09T15:06:18;7.77;;;5.43;;
42760;SDS011;31672;47.638;19.026;2023-04-09T15:11:21;6.93;;;5.50;;
42760;SDS011;31672;47.638;19.026;2023-04-09T15:16:28;6.53;;;5.03;;
42760;SDS011;31672;47.638;19.026;2023-04-09T15:21:33;6.63;;;5.00;;
42760;SDS011;31672;47.638;19.026;2023-04-09T15:26:36;6.93;;;4.90;;
42760;SDS011;31672;47.638;19.026;2023-04-09T15:31:40;5.97;;;4.87;;
42760;SDS011;31672;47.638;19.026;2023-04-09T15:36:46;5.90;;;4.45;;
42760;SDS011;31672;47.638;19.026;2023-04-09T15:41:50;6.38;;;5.00;;
42760;SDS011;31672;47.638;19.026;2023-04-09T15:46:53;5.20;;;4.07;;
42760;SDS011;31672;47.638;19.026;2023-04-09T15:51:57;6.68;;;5.03;;
42760;SDS011;31672;47.638;19.026;2023-04-09T15:57:00;9.00;;;6.45;;
42760;SDS011;31672;47.638;19.026;2023-04-09T16:02:05;8.70;;;5.80;;
42760;SDS011;31672;47.638;19.026;2023-04-09T16:07:08;7.80;;;5.77;;
42760;SDS011;31672;47.638;19.026;2023-04-09T16:12:12;7.80;;;6.27;;
42760;SDS011;31672;47.638;19.026;2023-04-09T16:17:15;8.17;;;5.50;;
42760;SDS011;31672;47.638;19.026;2023-04-09T16:22:18;7.67;;;5.37;;
42760;SDS011;31672;47.638;19.026;2023-04-09T16:27:21;9.57;;;6.07;;
42760;SDS011;31672;47.638;19.026;2023-04-09T16:32:24;10.87;;;6.37;;
42760;SDS011;31672;47.638;19.026;2023-04-09T16:37:28;8.00;;;5.70;;
42760;SDS011;31672;47.638;19.026;2023-04-09T16:42:32;9.33;;;6.20;;
42760;SDS011;31672;47.638;19.026;2023-04-09T16:47:35;10.17;;;6.40;;
42760;SDS011;31672;47.638;19.026;2023-04-09T16:52:39;9.33;;;6.97;;
42760;SDS011;31672;47.638;19.026;2023-04-09T16:57:45;10.00;;;7.20;;
42760;SDS011;31672;47.638;19.026;2023-04-09T17:02:52;9.03;;;5.90;;
42760;SDS011;31672;47.638;19.026;2023-04-09T17:07:58;11.27;;;7.10;;
42760;SDS011;31672;47.638;19.026;2023-04-09T17:13:01;13.60;;;9.00;;
42760;SDS011;31672;47.638;19.026;2023-04-09T17:18:04;15.73;;;9.27;;
42760;SDS011;31672;47.638;19.026;2023-04-09T17:23:07;19.37;;;12.17;;
42760;SDS011;31672;47.638;19.026;2023-04-09T17:28:10;16.13;;;10.63;;
42760;SDS011;31672;47.638;19.026;2023-04-09T17:33:14;12.00;;;7.67;;
42760;SDS011;31672;47.638;19.026;2023-04-09T17:38:17;13.67;;;8.17;;
42760;SDS011;31672;47.638;19.026;2023-04-09T17:43:22;16.13;;;9.33;;
42760;SDS011;31672;47.638;19.026;2023-04-09T17:48:25;11.20;;;7.50;;
42760;SDS011;31672;47.638;19.026;2023-04-09T17:53:31;11.17;;;7.13;;
42760;SDS011;31672;47.638;19.026;2023-04-09T17:58:35;16.20;;;10.87;;
42760;SDS011;31672;47.638;19.026;2023-04-09T18:03:38;14.67;;;10.67;;
42760;SDS011;31672;47.638;19.026;2023-04-09T18:08:43;15.93;;;10.90;;
42760;SDS011;31672;47.638;19.026;2023-04-09T18:13:47;16.87;;;10.80;;
42760;SDS011;31672;47.638;19.026;2023-04-09T18:18:54;17.73;;;10.33;;
42760;SDS011;31672;47.638;19.026;2023-04-09T18:23:59;20.23;;;11.73;;
42760;SDS011;31672;47.638;19.026;2023-04-09T18:29:20;25.87;;;14.43;;
42760;SDS011;31672;47.638;19.026;2023-04-09T18:34:24;21.13;;;10.50;;
42760;SDS011;31672;47.638;19.026;2023-04-09T18:39:27;17.87;;;12.20;;
42760;SDS011;31672;47.638;19.026;2023-04-09T18:44:32;20.73;;;11.00;;
42760;SDS011;31672;47.638;19.026;2023-04-09T18:49:37;20.47;;;12.17;;
42760;SDS011;31672;47.638;19.026;2023-04-09T18:54:40;14.47;;;9.77;;
42760;SDS011;31672;47.638;19.026;2023-04-09T18:59:44;12.63;;;7.87;;
42760;SDS011;31672;47.638;19.026;2023-04-09T19:04:48;17.03;;;10.03;;
42760;SDS011;31672;47.638;19.026;2023-04-09T19:09:52;16.27;;;9.33;;
42760;SDS011;31672;47.638;19.026;2023-04-09T19:14:55;19.93;;;11.67;;
42760;SDS011;31672;47.638;19.026;2023-04-09T19:20:01;32.67;;;18.03;;
42760;SDS011;31672;47.638;19.026;2023-04-09T19:25:04;19.97;;;10.70;;
42760;SDS011;31672;47.638;19.026;2023-04-09T19:30:09;22.37;;;11.80;;
42760;SDS011;31672;47.638;19.026;2023-04-09T19:35:12;18.27;;;9.90;;
42760;SDS011;31672;47.638;19.026;2023-04-09T19:40:18;11.60;;;7.70;;
42760;SDS011;31672;47.638;19.026;2023-04-09T19:45:21;17.17;;;8.57;;
42760;SDS011;31672;47.638;19.026;2023-04-09T19:50:28;14.30;;;8.43;;
42760;SDS011;31672;47.638;19.026;2023-04-09T19:55:32;17.03;;;9.73;;
42760;SDS011;31672;47.638;19.026;2023-04-09T20:00:36;13.63;;;8.00;;
42760;SDS011;31672;47.638;19.026;2023-04-09T20:05:39;19.07;;;11.00;;
42760;SDS011;31672;47.638;19.026;2023-04-09T20:10:42;18.17;;;10.83;;
42760;SDS011;31672;47.638;19.026;2023-04-09T20:15:48;20.27;;;10.23;;
42760;SDS011;31672;47.638;19.026;2023-04-09T20:20:51;20.23;;;11.90;;
42760;SDS011;31672;47.638;19.026;2023-04-09T20:25:54;20.00;;;10.83;;
42760;SDS011;31672;47.638;19.026;2023-04-09T20:30:57;29.83;;;14.37;;
42760;SDS011;31672;47.638;19.026;2023-04-09T20:36:03;25.57;;;13.97;;
42760;SDS011;31672;47.638;19.026;2023-04-09T20:41:18;26.57;;;14.23;;
42760;SDS011;31672;47.638;19.026;2023-04-09T20:46:23;22.63;;;13.20;;
42760;SDS011;31672;47.638;19.026;2023-04-09T20:51:26;19.57;;;11.83;;
42760;SDS011;31672;47.638;19.026;2023-04-09T20:56:29;21.37;;;11.53;;
42760;SDS011;31672;47.638;19.026;2023-04-09T21:01:33;19.07;;;9.80;;
42760;SDS011;31672;47.638;19.026;2023-04-09T21:06:37;16.23;;;10.07;;
42760;SDS011;31672;47.638;19.026;2023-04-09T21:11:41;16.70;;;10.83;;
42760;SDS011;31672;47.638;19.026;2023-04-09T21:16:44;18.50;;;10.30;;
42760;SDS011;31672;47.638;19.026;2023-04-09T21:21:48;17.10;;;8.93;;
42760;SDS011;31672;47.638;19.026;2023-04-09T21:26:51;18.70;;;10.30;;
42760;SDS011;31672;47.638;19.026;2023-04-09T21:31:55;13.87;;;8.40;;
42760;SDS011;31672;47.638;19.026;2023-04-09T21:37:00;14.17;;;8.77;;
42760;SDS011;31672;47.638;19.026;2023-04-09T21:42:04;17.70;;;11.13;;
42760;SDS011;31672;47.638;19.026;2023-04-09T21:47:08;20.23;;;10.37;;
42760;SDS011;31672;47.638;19.026;2023-04-09T21:52:13;17.83;;;10.47;;
42760;SDS011;31672;47.638;19.026;2023-04-09T21:57:18;19.40;;;9.57;;
42760;SDS011;31672;47.638;19.026;2023-04-09T22:02:22;20.00;;;10.57;;
42760;SDS011;31672;47.638;19.026;2023-04-09T22:07:25;20.83;;;10.80;;
42760;SDS011;31672;47.638;19.026;2023-04-09T22:12:28;16.90;;;10.93;;
42760;SDS011;31672;47.638;19.026;2023-04-09T22:17:31;16.20;;;9.93;;
42760;SDS011;31672;47.638;19.026;2023-04-09T22:22:35;16.07;;;9.67;;
42760;SDS011;31672;47.638;19.026;2023-04-09T22:27:39;15.63;;;9.40;;
42760;SDS011;31672;47.638;19.026;2023-04-09T22:32:42;15.60;;;9.00;;
42760;SDS011;31672;47.638;19.026;2023-04-09T22:37:45;13.40;;;8.30;;
42760;SDS011;31672;47.638;19.026;2023-04-09T22:42:48;15.97;;;9.20;;
42760;SDS011;31672;47.638;19.026;2023-04-09T22:47:51;16.63;;;9.47;;
42760;SDS011;31672;47.638;19.026;2023-04-09T22:52:54;21.33;;;12.23;;
42760;SDS011;31672;47.638;19.026;2023-04-09T22:57:58;19.80;;;10.57;;
42760;SDS011;31672;47.638;19.026;2023-04-09T23:03:02;16.70;;;9.30;;
42760;SDS011;31672;47.638;19.026;2023-04-09T23:08:05;18.73;;;10.73;;
42760;SDS011;31672;47.638;19.026;2023-04-09T23:13:08;17.67;;;9.07;;
42760;SDS011;31672;47.638;19.026;2023-04-09T23:18:13;17.13;;;8.80;;
42760;SDS011;31672;47.638;19.026;2023-04-09T23:23:16;21.90;;;10.47;;
42760;SDS011;31672;47.638;19.026;2023-04-09T23:28:19;18.17;;;10.90;;
42760;SDS011;31672;47.638;19.026;2023-04-09T23:33:22;19.73;;;9.90;;
42760;SDS011;31672;47.638;19.026;2023-04-09T23:38:25;17.77;;;10.07;;
42760;SDS011;31672;47.638;19.026;2023-04-09T23:43:28;20.17;;;11.40;;
42760;SDS011;31672;47.638;19.026;2023-04-09T23:48:31;21.50;;;11.23;;
42760;SDS011;31672;47.638;19.026;2023-04-09T23:53:39;21.63;;;11.47;;
42760;SDS011;31672;47.638;19.026;2023-04-09T23:58:42;20.13;;;9.70;;
